KHDN/HDN METAR and TAF weather

Enter ICAO airport designator
Station Type Date Time Source
KHDN METAR 2021/09/16 10:56 UTC NOAA

KHDN 161056Z AUTO 10014KT 10SM CLR 11/M06 A3006 RMK AO2 SLP097 T01061056


Station Type Date Time Source
KHDN Decoded METAR 2021/09/16 10:56 UTC NOAA

Hayden, Yampa Valley Airport, CO, United States (KHDN) 40-29N 107-13W
Sep 16, 2021 - 06:56 AM EDT / 2021.09.16 1056 UTC
Wind: from the E (100 degrees) at 16 MPH (14 KT):0
Visibility: 10 mile(s):0
Sky conditions: clear
Temperature: 51.1 F (10.6 C)
Dew Point: 21.9 F (-5.6 C)
Relative Humidity: 31%
Pressure (altimeter): 30.06 in. Hg (1017 hPa)
ob: KHDN 161056Z AUTO 10014KT 10SM CLR 11/M06 A3006 RMK AO2 SLP097 T01061056
cycle: 11

Station Type Date Time Source
KHDN TAF 2021/09/16 06:22 UTC NOAA

TAF KHDN 160520Z 1606/1706 11007KT P6SM SKC
FM161800 25011G19KT P6SM FEW250
FM162200 24015G25KT P6SM FEW250
FM170100 24012KT P6SM FEW250
FM170300 18006KT P6SM FEW250

Example: see airport list